Terminal Aerodrome Forecast
Issued by NWS Greer, SC

Home | Current Version | Previous Version | Text Only | Print | Product List | Glossary On
Versions: 1 2 3 4 5 6 7 8 9 10 11 12 13 14 15 16 17 18 19 20 21 22 23
000
FTUS42 KGSP 061728
TAFCLT
TAF
KCLT 061728Z 0618/0718 32010G22KT P6SM SCT050 BKN070
      TEMPO 0620/0623 5SM -SHRA OVC035
     FM062300 33006KT P6SM VCSH BKN070
     FM070100 29005KT P6SM SCT100
     FM071700 26008KT P6SM FEW200=

USA.gov is the U.S. government's official web portal to all federal, state and local government web resources and services.